createdAt,value
2022-10-01T00:01:19.670Z,98866.84
2022-10-01T00:04:22.106Z,98865.63
2022-10-01T00:07:23.985Z,98877.53
2022-10-01T00:10:26.667Z,98881.22
2022-10-01T00:13:30.485Z,98888.59
2022-10-01T00:16:32.329Z,98894.59
2022-10-01T00:19:34.106Z,98889.03
2022-10-01T00:22:36.539Z,98887.41
2022-10-01T00:25:38.941Z,98875.69
2022-10-01T00:28:42.278Z,98882.06
2022-10-01T00:31:44.088Z,98876.25
2022-10-01T00:34:45.898Z,98875.41
2022-10-01T00:37:50.523Z,98882.63
2022-10-01T00:40:53.219Z,98867.78
2022-10-01T00:43:59.294Z,98871.41
2022-10-01T00:47:19.418Z,98872.59
2022-10-01T00:50:30.392Z,98867.44
2022-10-01T00:53:32.826Z,98863.34
2022-10-01T00:56:34.620Z,98863.06
2022-10-01T00:59:36.886Z,98882.13
2022-10-01T01:02:39.257Z,98872.84
2022-10-01T01:05:41.165Z,98856.81
2022-10-01T01:08:43.563Z,98860.88
2022-10-01T01:11:51.374Z,98853.06
2022-10-01T01:15:08.180Z,98859.63
2022-10-01T01:18:35.806Z,98865.13
2022-10-01T01:21:44.944Z,98874.97
2022-10-01T01:24:51.026Z,98880.72
2022-10-01T01:28:14.040Z,98878.22
2022-10-01T01:31:25.092Z,98882.47
2022-10-01T01:34:31.358Z,98879.34
2022-10-01T01:37:39.075Z,98874.38
2022-10-01T01:40:44.538Z,98870.97
2022-10-01T01:43:51.338Z,98887.38
2022-10-01T01:46:56.477Z,98889.94
2022-10-01T01:49:59.592Z,98900.81
2022-10-01T01:53:02.168Z,98904.16
2022-10-01T01:56:05.646Z,98899.44
2022-10-01T01:59:08.621Z,98906.63
2022-10-01T02:02:35.482Z,98910.88
2022-10-01T02:05:48.709Z,98908.34
2022-10-01T02:09:05.513Z,98907.19
2022-10-01T02:12:30.309Z,98908.28
2022-10-01T02:15:46.915Z,98900.06
2022-10-01T02:19:12.063Z,98896.22
2022-10-01T02:22:21.493Z,98897.06
2022-10-01T02:25:27.053Z,98905.25
2022-10-01T02:28:33.651Z,98900.75
2022-10-01T02:31:35.866Z,98904.44
2022-10-01T02:34:40.144Z,98910.59
2022-10-01T02:37:44.536Z,98920.06
2022-10-01T02:40:49.824Z,98926.06
2022-10-01T02:43:57.096Z,98943.53
2022-10-01T02:47:12.055Z,98942.78
2022-10-01T02:50:14.908Z,98942.44
2022-10-01T02:53:31.492Z,98944.91
2022-10-01T02:56:56.044Z,98938.00
2022-10-01T03:00:21.353Z,98936.63
2022-10-01T03:03:26.097Z,98926.97
2022-10-01T03:06:28.071Z,98925.31
2022-10-01T03:09:34.530Z,98925.03
2022-10-01T03:12:36.231Z,98922.09
2022-10-01T03:15:37.905Z,98921.06
2022-10-01T03:18:39.643Z,98913.00
2022-10-01T03:21:41.439Z,98914.44
2022-10-01T03:24:43.114Z,98919.97
2022-10-01T03:27:46.152Z,98925.78
2022-10-01T03:30:47.934Z,98934.78
2022-10-01T03:33:49.671Z,98934.63
2022-10-01T03:36:54.009Z,98937.09
2022-10-01T03:39:55.907Z,98936.75
2022-10-01T03:42:57.566Z,98931.75
2022-10-01T03:45:59.340Z,98938.75
2022-10-01T03:49:01.299Z,98938.56
2022-10-01T03:52:06.550Z,98939.56
2022-10-01T03:55:08.553Z,98941.22
2022-10-01T03:58:10.263Z,98936.75
2022-10-01T04:01:12.071Z,98927.59
2022-10-01T04:04:14.930Z,98924.94
2022-10-01T04:07:16.636Z,98927.59
2022-10-01T04:10:18.411Z,98933.78
2022-10-01T04:13:20.253Z,98939.28
2022-10-01T04:16:22.037Z,98950.63
2022-10-01T04:19:23.772Z,98942.63
2022-10-01T04:22:25.511Z,98949.97
2022-10-01T04:25:28.284Z,98948.50
2022-10-01T04:28:31.542Z,98952.19
2022-10-01T04:31:35.914Z,98943.72
2022-10-01T04:34:52.972Z,98943.72
2022-10-01T04:38:01.949Z,98946.00
2022-10-01T04:41:03.762Z,98938.75
2022-10-01T04:44:05.700Z,98931.56
2022-10-01T04:47:08.595Z,98935.44
2022-10-01T04:50:10.411Z,98931.56
2022-10-01T04:53:12.124Z,98933.94
2022-10-01T04:56:13.827Z,98932.78
2022-10-01T04:59:16.003Z,98940.97
2022-10-01T05:02:18.397Z,98954.75
2022-10-01T05:05:22.767Z,98967.75
2022-10-01T05:08:24.654Z,98967.75
2022-10-01T05:11:26.448Z,98967.56
2022-10-01T05:14:28.149Z,98974.38
2022-10-01T05:17:34.195Z,98976.50
2022-10-01T05:20:37.848Z,98988.09
2022-10-01T05:23:39.729Z,98986.53
2022-10-01T05:26:41.435Z,98979.63
2022-10-01T05:29:43.384Z,98982.56
2022-10-01T05:32:55.376Z,98985.16
2022-10-01T05:35:58.404Z,98992.03
2022-10-01T05:39:00.067Z,98983.94
2022-10-01T05:42:06.495Z,98987.22
2022-10-01T05:45:10.164Z,98981.72
2022-10-01T05:48:12.880Z,98972.50
2022-10-01T05:51:15.228Z,98973.78
2022-10-01T05:54:19.615Z,98966.59
2022-10-01T05:57:21.497Z,98963.91
2022-10-01T06:00:24.248Z,98966.38
2022-10-01T06:03:28.777Z,98966.50
2022-10-01T06:06:30.686Z,98970.25
2022-10-01T06:09:32.702Z,98969.84
2022-10-01T06:12:34.623Z,98973.81
2022-10-01T06:15:38.559Z,98969.28
2022-10-01T06:18:41.604Z,98964.78
2022-10-01T06:21:43.745Z,98970.56
2022-10-01T06:24:45.734Z,98962.19
2022-10-01T06:27:56.285Z,98962.25
2022-10-01T06:31:01.787Z,98965.00
2022-10-01T06:34:03.471Z,98960.59
2022-10-01T06:37:05.273Z,98955.66
2022-10-01T06:40:07.665Z,98957.13
2022-10-01T06:43:09.878Z,98950.38
2022-10-01T06:46:11.679Z,98935.28
2022-10-01T06:49:13.919Z,98937.69
2022-10-01T06:52:34.188Z,98933.53
2022-10-01T06:55:37.006Z,98923.78
2022-10-01T06:58:38.809Z,98927.53
2022-10-01T07:01:40.658Z,98932.81
2022-10-01T07:04:42.702Z,98925.88
2022-10-01T07:07:44.963Z,98928.47
2022-10-01T07:10:46.917Z,98908.81
2022-10-01T07:13:54.366Z,98904.88
2022-10-01T07:16:56.487Z,98901.22
2022-10-01T07:19:58.815Z,98900.78
2022-10-01T07:23:00.667Z,98903.94
2022-10-01T07:26:08.820Z,98895.25
2022-10-01T07:29:10.917Z,98898.19
2022-10-01T07:32:12.682Z,98891.56
2022-10-01T07:35:18.937Z,98886.03
2022-10-01T07:38:23.636Z,98861.44
2022-10-01T07:41:25.496Z,98867.84
2022-10-01T07:44:28.929Z,98854.22
2022-10-01T07:47:30.772Z,98856.72
2022-10-01T07:50:32.683Z,98849.88
2022-10-01T07:53:34.512Z,98858.97
2022-10-01T07:56:36.352Z,98864.56
2022-10-01T07:59:40.892Z,98865.16
2022-10-01T08:02:47.459Z,98864.06
2022-10-01T08:05:49.860Z,98859.72
2022-10-01T08:08:51.545Z,98857.97
2022-10-01T08:11:53.215Z,98860.28
2022-10-01T08:14:55.888Z,98871.56
2022-10-01T08:18:01.385Z,98870.06
2022-10-01T08:21:04.226Z,98874.41
2022-10-01T08:24:06.003Z,98868.34
2022-10-01T08:27:07.720Z,98855.88
2022-10-01T08:30:09.959Z,98862.81
2022-10-01T08:33:13.121Z,98854.66
2022-10-01T08:36:16.486Z,98869.97
2022-10-01T08:39:18.661Z,98888.72
2022-10-01T08:42:33.398Z,98885.06
2022-10-01T08:45:47.657Z,98876.94
2022-10-01T08:48:57.387Z,98882.25
2022-10-01T08:52:20.134Z,98882.56
2022-10-01T08:55:27.103Z,98883.50
2022-10-01T08:58:41.175Z,98873.66
2022-10-01T09:01:43.281Z,98874.66
2022-10-01T09:04:46.470Z,98882.50
2022-10-01T09:08:06.582Z,98875.94
2022-10-01T09:11:14.471Z,98876.19
2022-10-01T09:14:19.376Z,98865.28
2022-10-01T09:17:21.074Z,98867.41
2022-10-01T09:20:57.274Z,98874.47
2022-10-01T09:24:04.335Z,98871.22
2022-10-01T09:27:18.203Z,98872.59
2022-10-01T09:30:23.367Z,98869.66
2022-10-01T09:33:31.700Z,98864.50
2022-10-01T09:36:51.832Z,98866.16
2022-10-01T09:40:14.856Z,98859.56
2022-10-01T09:43:19.965Z,98867.53
2022-10-01T09:46:21.928Z,98859.41
2022-10-01T09:49:31.541Z,98856.97
2022-10-01T09:52:40.793Z,98848.75
2022-10-01T09:55:45.824Z,98853.03
2022-10-01T09:58:53.826Z,98853.50
2022-10-01T10:02:01.091Z,98857.75
2022-10-01T10:05:05.892Z,98859.16
2022-10-01T10:08:10.399Z,98861.19
2022-10-01T10:11:25.299Z,98851.31
2022-10-01T10:14:41.229Z,98857.97
2022-10-01T10:17:46.382Z,98858.75
2022-10-01T10:20:54.067Z,98850.47
2022-10-01T10:24:01.786Z,98853.25
2022-10-01T10:27:06.793Z,98852.25
2022-10-01T10:30:17.305Z,98852.69
2022-10-01T10:33:21.885Z,98847.03
2022-10-01T10:36:29.475Z,98852.16
2022-10-01T10:39:35.040Z,98848.75
2022-10-01T10:42:38.917Z,98839.34
2022-10-01T10:45:46.649Z,98832.00
2022-10-01T10:48:58.645Z,98832.16
2022-10-01T10:52:01.939Z,98826.81
2022-10-01T10:55:32.811Z,98832.91
2022-10-01T10:58:40.331Z,98823.94
2022-10-01T11:01:45.610Z,98812.16
2022-10-01T11:04:47.545Z,98800.59
2022-10-01T11:07:53.926Z,98792.31
2022-10-01T11:11:19.425Z,98780.38
2022-10-01T11:14:47.435Z,98781.44
2022-10-01T11:17:55.469Z,98772.78
2022-10-01T11:21:09.215Z,98761.00
2022-10-01T11:24:33.015Z,98756.31
2022-10-01T11:27:52.703Z,98750.47
2022-10-01T11:31:10.105Z,98738.75
2022-10-01T11:34:40.072Z,98734.84
2022-10-01T11:37:41.755Z,98730.16
2022-10-01T11:40:51.119Z,98725.03
2022-10-01T11:43:56.183Z,98722.06
2022-10-01T11:47:20.662Z,98710.22
2022-10-01T11:50:28.226Z,98710.50
2022-10-01T11:53:39.076Z,98707.22
2022-10-01T11:57:08.883Z,98704.13
2022-10-01T12:00:13.835Z,98696.75
2022-10-01T12:03:23.598Z,98687.09
2022-10-01T12:06:42.624Z,98689.44
2022-10-01T12:10:00.683Z,98685.34
2022-10-01T12:13:12.622Z,98688.28
2022-10-01T12:16:33.352Z,98684.53
2022-10-01T12:19:39.118Z,98677.47
2022-10-01T12:22:42.177Z,98676.75
2022-10-01T12:26:02.684Z,98674.06
2022-10-01T12:29:13.002Z,98670.84
2022-10-01T12:32:33.821Z,98665.69
2022-10-01T12:35:56.592Z,98660.38
2022-10-01T12:38:58.292Z,98664.69
2022-10-01T12:42:30.242Z,98666.28
2022-10-01T12:45:56.283Z,98668.72
2022-10-01T12:49:02.794Z,98662.31
2022-10-01T12:52:23.266Z,98656.34
2022-10-01T12:56:07.270Z,98648.28
2022-10-01T12:59:11.876Z,98639.41
2022-10-01T13:02:34.322Z,98632.63
2022-10-01T13:05:48.120Z,98632.59
2022-10-01T13:09:03.525Z,98630.34
2022-10-01T13:12:21.556Z,98627.78
2022-10-01T13:15:37.765Z,98621.75
2022-10-01T13:19:14.568Z,98614.91
2022-10-01T13:22:38.353Z,98614.59
2022-10-01T13:25:51.834Z,98616.84
2022-10-01T13:29:19.012Z,98613.88
2022-10-01T13:32:30.279Z,98611.84
2022-10-01T13:35:39.411Z,98614.09
2022-10-01T13:38:44.067Z,98618.34
2022-10-01T13:41:45.949Z,98620.31
2022-10-01T13:44:56.907Z,98621.22
2022-10-01T13:48:10.738Z,98619.22
2022-10-01T13:51:14.730Z,98622.06
2022-10-01T13:54:29.882Z,98632.00
2022-10-01T13:57:34.529Z,98633.53
2022-10-01T14:00:53.485Z,98640.97
2022-10-01T14:04:16.124Z,98651.38
2022-10-01T14:07:32.732Z,98652.44
2022-10-01T14:10:58.049Z,98654.59
2022-10-01T14:14:30.438Z,98651.03
2022-10-01T14:17:33.318Z,98664.28
2022-10-01T14:20:58.208Z,98656.19
2022-10-01T14:24:08.879Z,98655.06
2022-10-01T14:27:26.199Z,98648.59
2022-10-01T14:30:45.749Z,98649.97
2022-10-01T14:34:29.085Z,98651.78
2022-10-01T14:37:31.011Z,98641.59
2022-10-01T14:40:39.442Z,98632.13
2022-10-01T14:43:41.179Z,98630.09
2022-10-01T14:46:42.926Z,98628.81
2022-10-01T14:49:44.852Z,98630.72
2022-10-01T14:52:51.064Z,98625.69
2022-10-01T14:55:54.397Z,98624.56
2022-10-01T14:59:05.399Z,98631.94
2022-10-01T15:02:19.875Z,98629.31
2022-10-01T15:05:26.339Z,98623.41
2022-10-01T15:08:43.163Z,98635.06
2022-10-01T15:11:48.544Z,98634.84
2022-10-01T15:14:54.253Z,98639.72
2022-10-01T15:17:56.057Z,98637.31
2022-10-01T15:21:06.344Z,98638.66
2022-10-01T15:24:20.411Z,98633.78
2022-10-01T15:27:22.718Z,98639.91
2022-10-01T15:30:27.084Z,98638.31
2022-10-01T15:33:37.911Z,98630.47
2022-10-01T15:36:41.103Z,98632.75
2022-10-01T15:39:48.860Z,98644.66
2022-10-01T15:43:08.881Z,98659.09
2022-10-01T15:46:16.883Z,98670.69
2022-10-01T15:49:24.926Z,98667.84
2022-10-01T15:52:45.724Z,98667.84
2022-10-01T15:55:53.094Z,98657.13
2022-10-01T15:59:03.650Z,98677.06
2022-10-01T16:02:14.771Z,98654.03
2022-10-01T16:05:20.088Z,98645.56
2022-10-01T16:08:33.844Z,98656.66
2022-10-01T16:11:51.891Z,98661.03
2022-10-01T16:14:58.524Z,98668.09
2022-10-01T16:18:04.984Z,98657.38
2022-10-01T16:21:11.904Z,98667.09
2022-10-01T16:24:28.467Z,98685.31
2022-10-01T16:27:48.441Z,98693.81
2022-10-01T16:30:51.322Z,98697.53
2022-10-01T16:33:53.170Z,98700.06
2022-10-01T16:36:56.087Z,98698.22
2022-10-01T16:39:57.840Z,98712.88
2022-10-01T16:43:00.753Z,98714.75
2022-10-01T16:46:02.576Z,98725.28
2022-10-01T16:49:15.813Z,98721.38
2022-10-01T16:52:17.575Z,98716.00
2022-10-01T16:55:23.602Z,98699.53
2022-10-01T16:58:25.643Z,98680.56
2022-10-01T17:01:28.115Z,98697.06
2022-10-01T17:04:33.976Z,98695.81
2022-10-01T17:07:35.963Z,98705.50
2022-10-01T17:10:47.591Z,98716.63
2022-10-01T17:13:49.313Z,98723.25
2022-10-01T17:16:53.411Z,98732.72
2022-10-01T17:19:55.343Z,98743.84
2022-10-01T17:22:58.308Z,98743.78
2022-10-01T17:26:00.001Z,98738.81
2022-10-01T17:29:01.855Z,98749.53
2022-10-01T17:32:03.697Z,98755.28
2022-10-01T17:35:07.069Z,98755.06
2022-10-01T17:38:09.763Z,98752.97
2022-10-01T17:41:11.564Z,98741.22
2022-10-01T17:44:13.269Z,98747.75
2022-10-01T17:47:15.125Z,98742.75
2022-10-01T17:50:17.514Z,98758.78
2022-10-01T17:53:19.408Z,98762.44
2022-10-01T17:56:21.272Z,98771.00
2022-10-01T17:59:22.969Z,98769.09
2022-10-01T18:02:40.854Z,98782.78
2022-10-01T18:05:44.687Z,98787.63
2022-10-01T18:09:01.465Z,98776.25
2022-10-01T18:12:04.314Z,98774.94
2022-10-01T18:15:06.614Z,98772.88
2022-10-01T18:19:30.938Z,98787.84
2022-10-01T18:21:32.282Z,98791.50
2022-10-01T18:24:34.550Z,98800.09
2022-10-01T18:27:36.260Z,98804.34
2022-10-01T18:30:37.983Z,98793.78
2022-10-01T18:33:49.328Z,98800.72
2022-10-01T18:36:55.985Z,98797.16
2022-10-01T18:40:41.064Z,98800.19
2022-10-01T18:43:43.629Z,98803.00
2022-10-01T18:46:45.210Z,98809.09
2022-10-01T18:50:03.273Z,98805.16
2022-10-01T18:53:07.888Z,98798.72
2022-10-01T18:56:22.495Z,98803.41
2022-10-01T18:59:46.525Z,98809.84
2022-10-01T19:03:23.661Z,98807.09
2022-10-01T19:07:08.502Z,98806.75
2022-10-01T19:10:26.330Z,98811.72
2022-10-01T19:14:23.027Z,98810.19
2022-10-01T19:17:52.866Z,98821.94
2022-10-01T19:21:36.347Z,98819.81
2022-10-01T19:24:57.893Z,98822.41
2022-10-01T19:28:05.867Z,98828.22
2022-10-01T19:31:29.834Z,98841.41
2022-10-01T19:34:41.496Z,98828.19
2022-10-01T19:37:49.181Z,98841.78
2022-10-01T19:41:04.483Z,98841.97
2022-10-01T19:44:17.534Z,98858.03
2022-10-01T19:47:36.692Z,98850.03
2022-10-01T19:50:43.616Z,98858.75
2022-10-01T19:53:50.142Z,98848.63
2022-10-01T19:56:55.200Z,98859.47
2022-10-01T19:59:59.691Z,98858.16
2022-10-01T20:03:11.283Z,98865.19
2022-10-01T20:06:29.621Z,98855.03
2022-10-01T20:09:41.445Z,98859.19
2022-10-01T20:13:11.034Z,98867.47
2022-10-01T20:16:30.248Z,98865.97
2022-10-01T20:19:42.480Z,98856.84
2022-10-01T20:23:25.932Z,98856.78
2022-10-01T20:26:48.238Z,98854.13
2022-10-01T20:30:06.960Z,98858.53
2022-10-01T20:33:26.823Z,98858.81
2022-10-01T20:36:58.528Z,98865.25
2022-10-01T20:40:26.456Z,98850.19
2022-10-01T20:43:35.192Z,98850.75
2022-10-01T20:46:46.799Z,98850.94
2022-10-01T20:50:09.137Z,98859.41
2022-10-01T20:53:17.585Z,98857.03
2022-10-01T20:56:26.147Z,98869.25
2022-10-01T20:59:35.874Z,98880.44
2022-10-01T21:02:43.975Z,98879.06
2022-10-01T21:05:53.613Z,98876.75
2022-10-01T21:08:59.473Z,98880.41
2022-10-01T21:12:09.860Z,98887.31
2022-10-01T21:15:14.832Z,98894.56
2022-10-01T21:18:41.615Z,98895.47
2022-10-01T21:21:55.178Z,98898.78
2022-10-01T21:25:35.453Z,98900.38
2022-10-01T21:28:40.038Z,98905.03
2022-10-01T21:31:51.159Z,98913.56
2022-10-01T21:35:01.872Z,98912.00
2022-10-01T21:38:11.633Z,98920.44
2022-10-01T21:41:41.807Z,98919.25
2022-10-01T21:45:05.593Z,98913.28
2022-10-01T21:48:58.098Z,98924.31
2022-10-01T21:52:29.144Z,98937.63
2022-10-01T21:56:08.348Z,98937.22
2022-10-01T21:59:47.571Z,98940.28
2022-10-01T22:02:52.126Z,98937.50
2022-10-01T22:06:03.132Z,98937.06
2022-10-01T22:09:07.520Z,98934.41
2022-10-01T22:12:10.993Z,98925.47
2022-10-01T22:15:35.513Z,98936.06
2022-10-01T22:18:43.368Z,98940.78
2022-10-01T22:21:47.893Z,98938.94
2022-10-01T22:24:52.483Z,98949.34
2022-10-01T22:28:02.070Z,98953.84
2022-10-01T22:31:09.219Z,98944.00
2022-10-01T22:34:28.028Z,98940.59
2022-10-01T22:37:42.864Z,98935.72
2022-10-01T22:41:27.397Z,98953.63
2022-10-01T22:44:29.590Z,98959.97
2022-10-01T22:47:52.067Z,98951.78
2022-10-01T22:51:09.931Z,98964.72
2022-10-01T22:54:47.740Z,98963.84
2022-10-01T22:57:57.117Z,98957.53
2022-10-01T23:01:39.532Z,98952.47
2022-10-01T23:05:04.860Z,98957.97
2022-10-01T23:08:57.466Z,98966.53
2022-10-01T23:12:18.435Z,98958.38
2022-10-01T23:15:28.261Z,98961.81
2022-10-01T23:18:42.668Z,98962.47
2022-10-01T23:22:02.116Z,98962.34
2022-10-01T23:25:23.751Z,98962.75
2022-10-01T23:28:34.682Z,98962.81
2022-10-01T23:31:51.239Z,98971.47
2022-10-01T23:35:20.057Z,98974.97
2022-10-01T23:38:30.789Z,98973.84
2022-10-01T23:41:43.746Z,98971.81
2022-10-01T23:45:17.028Z,98974.66
2022-10-01T23:48:27.043Z,98980.16
2022-10-01T23:51:43.080Z,98981.34
2022-10-01T23:54:50.749Z,98976.00
2022-10-01T23:57:58.633Z,98981.34
